sensor_id;sensor_type;location;lat;lon;timestamp;P1;durP1;ratioP1;P2;durP2;ratioP2
74674;SDS011;63200;48.810;12.352;2023-07-20T00:00:22;4.47;;;2.72;;
74674;SDS011;63200;48.810;12.352;2023-07-20T00:02:49;5.18;;;2.92;;
74674;SDS011;63200;48.810;12.352;2023-07-20T00:05:16;4.72;;;2.60;;
74674;SDS011;63200;48.810;12.352;2023-07-20T00:07:43;3.00;;;2.75;;
74674;SDS011;63200;48.810;12.352;2023-07-20T00:10:09;3.22;;;2.70;;
74674;SDS011;63200;48.810;12.352;2023-07-20T00:12:34;2.95;;;2.67;;
74674;SDS011;63200;48.810;12.352;2023-07-20T00:15:00;2.95;;;2.65;;
74674;SDS011;63200;48.810;12.352;2023-07-20T00:17:25;5.28;;;3.13;;
74674;SDS011;63200;48.810;12.352;2023-07-20T00:19:51;7.03;;;3.63;;
74674;SDS011;63200;48.810;12.352;2023-07-20T00:22:16;4.13;;;2.67;;
74674;SDS011;63200;48.810;12.352;2023-07-20T00:24:41;4.45;;;3.10;;
74674;SDS011;63200;48.810;12.352;2023-07-20T00:27:07;5.35;;;2.80;;
74674;SDS011;63200;48.810;12.352;2023-07-20T00:29:32;4.68;;;2.80;;
74674;SDS011;63200;48.810;12.352;2023-07-20T00:31:58;4.10;;;2.90;;
74674;SDS011;63200;48.810;12.352;2023-07-20T00:34:24;6.40;;;2.80;;
74674;SDS011;63200;48.810;12.352;2023-07-20T00:36:49;3.17;;;2.97;;
74674;SDS011;63200;48.810;12.352;2023-07-20T00:39:15;2.97;;;2.60;;
74674;SDS011;63200;48.810;12.352;2023-07-20T00:41:40;4.22;;;2.65;;
74674;SDS011;63200;48.810;12.352;2023-07-20T00:44:05;4.03;;;2.70;;
74674;SDS011;63200;48.810;12.352;2023-07-20T00:46:31;3.00;;;2.80;;
74674;SDS011;63200;48.810;12.352;2023-07-20T00:48:57;6.70;;;2.72;;
74674;SDS011;63200;48.810;12.352;2023-07-20T00:51:23;5.68;;;3.35;;
74674;SDS011;63200;48.810;12.352;2023-07-20T00:53:51;3.92;;;2.90;;
74674;SDS011;63200;48.810;12.352;2023-07-20T00:56:17;3.25;;;2.92;;
74674;SDS011;63200;48.810;12.352;2023-07-20T00:58:43;3.58;;;2.85;;
74674;SDS011;63200;48.810;12.352;2023-07-20T01:01:09;4.45;;;2.95;;
74674;SDS011;63200;48.810;12.352;2023-07-20T01:03:34;2.97;;;2.72;;
74674;SDS011;63200;48.810;12.352;2023-07-20T01:14:07;9.10;;;3.42;;
74674;SDS011;63200;48.810;12.352;2023-07-20T01:16:33;3.38;;;2.95;;
74674;SDS011;63200;48.810;12.352;2023-07-20T01:18:59;3.13;;;2.92;;
74674;SDS011;63200;48.810;12.352;2023-07-20T01:21:26;4.57;;;2.97;;
74674;SDS011;63200;48.810;12.352;2023-07-20T01:32:04;3.35;;;3.05;;
74674;SDS011;63200;48.810;12.352;2023-07-20T01:34:32;3.67;;;3.10;;
74674;SDS011;63200;48.810;12.352;2023-07-20T01:37:00;3.28;;;2.97;;
74674;SDS011;63200;48.810;12.352;2023-07-20T01:39:26;4.28;;;3.00;;
74674;SDS011;63200;48.810;12.352;2023-07-20T01:41:52;3.28;;;2.83;;
74674;SDS011;63200;48.810;12.352;2023-07-20T01:44:18;8.27;;;3.00;;
74674;SDS011;63200;48.810;12.352;2023-07-20T01:46:43;3.53;;;2.80;;
74674;SDS011;63200;48.810;12.352;2023-07-20T01:49:08;4.78;;;2.95;;
74674;SDS011;63200;48.810;12.352;2023-07-20T01:51:34;6.10;;;3.20;;
74674;SDS011;63200;48.810;12.352;2023-07-20T01:53:59;6.82;;;2.95;;
74674;SDS011;63200;48.810;12.352;2023-07-20T01:56:25;3.85;;;3.53;;
74674;SDS011;63200;48.810;12.352;2023-07-20T01:58:50;4.38;;;2.97;;
74674;SDS011;63200;48.810;12.352;2023-07-20T02:01:15;3.13;;;2.92;;
74674;SDS011;63200;48.810;12.352;2023-07-20T02:03:40;5.22;;;3.08;;
74674;SDS011;63200;48.810;12.352;2023-07-20T02:06:06;3.40;;;2.97;;
74674;SDS011;63200;48.810;12.352;2023-07-20T02:08:31;3.92;;;3.15;;
74674;SDS011;63200;48.810;12.352;2023-07-20T02:10:57;4.55;;;3.60;;
74674;SDS011;63200;48.810;12.352;2023-07-20T02:13:22;3.40;;;3.10;;
74674;SDS011;63200;48.810;12.352;2023-07-20T02:15:47;3.30;;;2.97;;
74674;SDS011;63200;48.810;12.352;2023-07-20T02:18:14;3.63;;;3.10;;
74674;SDS011;63200;48.810;12.352;2023-07-20T02:20:40;8.38;;;2.83;;
74674;SDS011;63200;48.810;12.352;2023-07-20T02:23:06;3.08;;;2.88;;
74674;SDS011;63200;48.810;12.352;2023-07-20T02:25:31;3.70;;;3.35;;
74674;SDS011;63200;48.810;12.352;2023-07-20T02:27:56;4.95;;;3.10;;
74674;SDS011;63200;48.810;12.352;2023-07-20T02:30:23;3.58;;;2.97;;
74674;SDS011;63200;48.810;12.352;2023-07-20T02:32:48;6.70;;;2.70;;
74674;SDS011;63200;48.810;12.352;2023-07-20T02:35:14;4.53;;;3.15;;
74674;SDS011;63200;48.810;12.352;2023-07-20T02:37:40;5.22;;;3.10;;
74674;SDS011;63200;48.810;12.352;2023-07-20T02:40:05;4.10;;;3.10;;
74674;SDS011;63200;48.810;12.352;2023-07-20T02:42:32;3.42;;;2.95;;
74674;SDS011;63200;48.810;12.352;2023-07-20T02:44:57;3.63;;;3.20;;
74674;SDS011;63200;48.810;12.352;2023-07-20T02:47:23;5.07;;;3.22;;
74674;SDS011;63200;48.810;12.352;2023-07-20T02:49:48;3.72;;;3.42;;
74674;SDS011;63200;48.810;12.352;2023-07-20T02:52:14;5.80;;;3.42;;
74674;SDS011;63200;48.810;12.352;2023-07-20T02:54:39;5.85;;;3.33;;
74674;SDS011;63200;48.810;12.352;2023-07-20T02:57:05;6.07;;;3.22;;
74674;SDS011;63200;48.810;12.352;2023-07-20T02:59:30;3.40;;;3.10;;
74674;SDS011;63200;48.810;12.352;2023-07-20T03:01:55;6.32;;;3.53;;
74674;SDS011;63200;48.810;12.352;2023-07-20T03:04:22;3.45;;;2.90;;
74674;SDS011;63200;48.810;12.352;2023-07-20T03:06:48;3.90;;;3.20;;
74674;SDS011;63200;48.810;12.352;2023-07-20T03:09:13;4.40;;;3.50;;
74674;SDS011;63200;48.810;12.352;2023-07-20T03:11:40;3.63;;;3.22;;
74674;SDS011;63200;48.810;12.352;2023-07-20T03:14:05;3.90;;;3.10;;
74674;SDS011;63200;48.810;12.352;2023-07-20T03:16:31;3.45;;;3.15;;
74674;SDS011;63200;48.810;12.352;2023-07-20T03:18:58;4.13;;;3.03;;
74674;SDS011;63200;48.810;12.352;2023-07-20T03:21:24;6.68;;;3.22;;
74674;SDS011;63200;48.810;12.352;2023-07-20T03:23:49;3.40;;;3.10;;
74674;SDS011;63200;48.810;12.352;2023-07-20T03:26:15;5.75;;;3.25;;
74674;SDS011;63200;48.810;12.352;2023-07-20T03:28:40;3.13;;;2.92;;
74674;SDS011;63200;48.810;12.352;2023-07-20T03:31:05;7.72;;;3.65;;
74674;SDS011;63200;48.810;12.352;2023-07-20T03:33:31;4.63;;;2.78;;
74674;SDS011;63200;48.810;12.352;2023-07-20T03:35:57;6.07;;;3.25;;
74674;SDS011;63200;48.810;12.352;2023-07-20T03:38:23;4.00;;;3.47;;
74674;SDS011;63200;48.810;12.352;2023-07-20T03:40:53;5.57;;;3.30;;
74674;SDS011;63200;48.810;12.352;2023-07-20T03:43:19;5.07;;;3.15;;
74674;SDS011;63200;48.810;12.352;2023-07-20T03:45:44;7.28;;;3.60;;
74674;SDS011;63200;48.810;12.352;2023-07-20T03:48:14;3.83;;;3.10;;
74674;SDS011;63200;48.810;12.352;2023-07-20T03:50:41;3.80;;;2.58;;
74674;SDS011;63200;48.810;12.352;2023-07-20T03:53:06;5.20;;;3.25;;
74674;SDS011;63200;48.810;12.352;2023-07-20T03:55:31;4.78;;;3.30;;
74674;SDS011;63200;48.810;12.352;2023-07-20T03:57:57;5.13;;;3.58;;
74674;SDS011;63200;48.810;12.352;2023-07-20T04:00:22;3.58;;;2.95;;
74674;SDS011;63200;48.810;12.352;2023-07-20T04:02:48;3.53;;;3.22;;
74674;SDS011;63200;48.810;12.352;2023-07-20T04:05:13;4.05;;;3.10;;
74674;SDS011;63200;48.810;12.352;2023-07-20T04:07:39;3.78;;;3.13;;
74674;SDS011;63200;48.810;12.352;2023-07-20T04:10:04;3.58;;;3.08;;
74674;SDS011;63200;48.810;12.352;2023-07-20T04:12:30;4.40;;;3.38;;
74674;SDS011;63200;48.810;12.352;2023-07-20T04:14:55;3.47;;;3.22;;
74674;SDS011;63200;48.810;12.352;2023-07-20T04:17:20;4.47;;;3.03;;
74674;SDS011;63200;48.810;12.352;2023-07-20T04:19:46;6.68;;;3.22;;
74674;SDS011;63200;48.810;12.352;2023-07-20T04:22:11;3.50;;;3.00;;
74674;SDS011;63200;48.810;12.352;2023-07-20T04:24:36;5.07;;;3.58;;
74674;SDS011;63200;48.810;12.352;2023-07-20T04:27:02;3.88;;;3.22;;
74674;SDS011;63200;48.810;12.352;2023-07-20T04:29:27;6.50;;;3.47;;
74674;SDS011;63200;48.810;12.352;2023-07-20T04:31:53;5.80;;;3.30;;
74674;SDS011;63200;48.810;12.352;2023-07-20T04:34:18;6.85;;;4.03;;
74674;SDS011;63200;48.810;12.352;2023-07-20T04:36:43;3.28;;;3.08;;
74674;SDS011;63200;48.810;12.352;2023-07-20T04:39:09;7.70;;;3.35;;
74674;SDS011;63200;48.810;12.352;2023-07-20T04:41:35;4.18;;;3.03;;
74674;SDS011;63200;48.810;12.352;2023-07-20T04:44:00;5.57;;;3.33;;
74674;SDS011;63200;48.810;12.352;2023-07-20T04:46:26;5.65;;;3.17;;
74674;SDS011;63200;48.810;12.352;2023-07-20T04:48:51;6.10;;;2.80;;
74674;SDS011;63200;48.810;12.352;2023-07-20T04:51:17;3.78;;;2.90;;
74674;SDS011;63200;48.810;12.352;2023-07-20T04:53:45;3.13;;;2.50;;
74674;SDS011;63200;48.810;12.352;2023-07-20T04:56:11;2.15;;;2.03;;
74674;SDS011;63200;48.810;12.352;2023-07-20T04:58:37;4.68;;;2.65;;
74674;SDS011;63200;48.810;12.352;2023-07-20T05:01:02;2.80;;;2.60;;
74674;SDS011;63200;48.810;12.352;2023-07-20T05:03:27;2.45;;;2.33;;
74674;SDS011;63200;48.810;12.352;2023-07-20T05:05:53;5.72;;;2.55;;
74674;SDS011;63200;48.810;12.352;2023-07-20T05:08:19;2.58;;;2.45;;
74674;SDS011;63200;48.810;12.352;2023-07-20T05:10:44;2.47;;;2.35;;
74674;SDS011;63200;48.810;12.352;2023-07-20T05:13:09;2.60;;;2.40;;
74674;SDS011;63200;48.810;12.352;2023-07-20T05:15:35;4.10;;;2.55;;
74674;SDS011;63200;48.810;12.352;2023-07-20T05:18:00;7.35;;;2.47;;
74674;SDS011;63200;48.810;12.352;2023-07-20T05:20:26;3.03;;;2.30;;
74674;SDS011;63200;48.810;12.352;2023-07-20T05:22:52;9.27;;;2.35;;
74674;SDS011;63200;48.810;12.352;2023-07-20T05:25:18;3.03;;;2.13;;
74674;SDS011;63200;48.810;12.352;2023-07-20T05:27:44;5.07;;;3.08;;
74674;SDS011;63200;48.810;12.352;2023-07-20T05:30:11;4.63;;;2.40;;
74674;SDS011;63200;48.810;12.352;2023-07-20T05:32:37;2.30;;;2.15;;
74674;SDS011;63200;48.810;12.352;2023-07-20T05:35:02;4.97;;;2.03;;
74674;SDS011;63200;48.810;12.352;2023-07-20T05:37:28;6.10;;;2.38;;
74674;SDS011;63200;48.810;12.352;2023-07-20T05:39:53;9.85;;;2.38;;
74674;SDS011;63200;48.810;12.352;2023-07-20T05:42:18;6.90;;;2.08;;
74674;SDS011;63200;48.810;12.352;2023-07-20T05:44:44;4.25;;;2.60;;
74674;SDS011;63200;48.810;12.352;2023-07-20T05:47:09;3.70;;;2.28;;
74674;SDS011;63200;48.810;12.352;2023-07-20T05:49:35;6.68;;;2.00;;
74674;SDS011;63200;48.810;12.352;2023-07-20T05:52:00;4.03;;;2.13;;
74674;SDS011;63200;48.810;12.352;2023-07-20T05:54:26;3.22;;;2.22;;
74674;SDS011;63200;48.810;12.352;2023-07-20T05:56:52;10.00;;;2.10;;
74674;SDS011;63200;48.810;12.352;2023-07-20T05:59:17;2.55;;;2.20;;
74674;SDS011;63200;48.810;12.352;2023-07-20T06:01:44;4.00;;;2.75;;
74674;SDS011;63200;48.810;12.352;2023-07-20T06:04:09;8.82;;;2.17;;
74674;SDS011;63200;48.810;12.352;2023-07-20T06:06:35;3.90;;;2.20;;
74674;SDS011;63200;48.810;12.352;2023-07-20T06:09:00;6.03;;;2.35;;
74674;SDS011;63200;48.810;12.352;2023-07-20T06:11:29;3.63;;;2.10;;
74674;SDS011;63200;48.810;12.352;2023-07-20T06:13:55;4.45;;;2.20;;
74674;SDS011;63200;48.810;12.352;2023-07-20T06:16:21;3.53;;;2.35;;
74674;SDS011;63200;48.810;12.352;2023-07-20T06:18:46;3.13;;;2.25;;
74674;SDS011;63200;48.810;12.352;2023-07-20T06:21:11;4.97;;;2.38;;
74674;SDS011;63200;48.810;12.352;2023-07-20T06:23:37;6.10;;;2.72;;
74674;SDS011;63200;48.810;12.352;2023-07-20T06:26:03;3.83;;;2.30;;
74674;SDS011;63200;48.810;12.352;2023-07-20T06:28:31;3.42;;;2.30;;
74674;SDS011;63200;48.810;12.352;2023-07-20T06:31:00;3.72;;;2.58;;
74674;SDS011;63200;48.810;12.352;2023-07-20T06:33:26;6.68;;;2.25;;
74674;SDS011;63200;48.810;12.352;2023-07-20T06:35:51;4.55;;;2.75;;
74674;SDS011;63200;48.810;12.352;2023-07-20T06:38:17;5.85;;;2.88;;
74674;SDS011;63200;48.810;12.352;2023-07-20T06:40:43;3.20;;;2.53;;
74674;SDS011;63200;48.810;12.352;2023-07-20T06:43:10;5.38;;;2.95;;
74674;SDS011;63200;48.810;12.352;2023-07-20T06:45:36;4.57;;;3.10;;
74674;SDS011;63200;48.810;12.352;2023-07-20T06:48:01;6.18;;;2.97;;
74674;SDS011;63200;48.810;12.352;2023-07-20T06:50:27;4.03;;;2.78;;
74674;SDS011;63200;48.810;12.352;2023-07-20T06:52:52;3.10;;;2.78;;
74674;SDS011;63200;48.810;12.352;2023-07-20T06:55:17;3.28;;;3.00;;
74674;SDS011;63200;48.810;12.352;2023-07-20T06:57:43;3.47;;;2.70;;
74674;SDS011;63200;48.810;12.352;2023-07-20T07:00:08;5.00;;;2.92;;
74674;SDS011;63200;48.810;12.352;2023-07-20T07:02:34;3.67;;;3.28;;
74674;SDS011;63200;48.810;12.352;2023-07-20T07:04:59;2.85;;;2.65;;
74674;SDS011;63200;48.810;12.352;2023-07-20T07:07:25;6.05;;;3.70;;
74674;SDS011;63200;48.810;12.352;2023-07-20T07:09:50;6.57;;;3.20;;
74674;SDS011;63200;48.810;12.352;2023-07-20T07:12:15;7.18;;;3.20;;
74674;SDS011;63200;48.810;12.352;2023-07-20T07:14:41;3.42;;;2.83;;
74674;SDS011;63200;48.810;12.352;2023-07-20T07:17:06;12.27;;;3.33;;
74674;SDS011;63200;48.810;12.352;2023-07-20T07:19:32;3.95;;;3.10;;
74674;SDS011;63200;48.810;12.352;2023-07-20T07:21:57;7.05;;;3.05;;
74674;SDS011;63200;48.810;12.352;2023-07-20T07:24:22;4.03;;;3.30;;
74674;SDS011;63200;48.810;12.352;2023-07-20T07:26:48;5.28;;;2.90;;
74674;SDS011;63200;48.810;12.352;2023-07-20T07:29:13;3.05;;;2.85;;
74674;SDS011;63200;48.810;12.352;2023-07-20T07:31:38;3.42;;;3.00;;
74674;SDS011;63200;48.810;12.352;2023-07-20T07:34:04;5.88;;;3.58;;
74674;SDS011;63200;48.810;12.352;2023-07-20T07:36:30;3.88;;;2.97;;
74674;SDS011;63200;48.810;12.352;2023-07-20T07:38:56;7.28;;;2.78;;
74674;SDS011;63200;48.810;12.352;2023-07-20T07:41:21;3.42;;;3.15;;
74674;SDS011;63200;48.810;12.352;2023-07-20T07:43:47;5.38;;;2.90;;
74674;SDS011;63200;48.810;12.352;2023-07-20T07:46:12;7.45;;;2.92;;
74674;SDS011;63200;48.810;12.352;2023-07-20T07:48:39;2.92;;;2.60;;
74674;SDS011;63200;48.810;12.352;2023-07-20T07:51:04;2.97;;;2.78;;
74674;SDS011;63200;48.810;12.352;2023-07-20T07:53:30;3.33;;;2.50;;
74674;SDS011;63200;48.810;12.352;2023-07-20T07:55:57;2.65;;;2.45;;
74674;SDS011;63200;48.810;12.352;2023-07-20T07:58:22;5.13;;;2.42;;
74674;SDS011;63200;48.810;12.352;2023-07-20T08:00:48;4.55;;;2.40;;
74674;SDS011;63200;48.810;12.352;2023-07-20T08:03:13;3.70;;;3.25;;
74674;SDS011;63200;48.810;12.352;2023-07-20T08:05:39;5.10;;;2.40;;
74674;SDS011;63200;48.810;12.352;2023-07-20T08:08:04;2.22;;;2.13;;
74674;SDS011;63200;48.810;12.352;2023-07-20T08:10:30;2.88;;;2.20;;
74674;SDS011;63200;48.810;12.352;2023-07-20T08:12:55;2.90;;;2.70;;
74674;SDS011;63200;48.810;12.352;2023-07-20T08:15:21;6.38;;;2.83;;
74674;SDS011;63200;48.810;12.352;2023-07-20T08:17:47;5.22;;;2.20;;
74674;SDS011;63200;48.810;12.352;2023-07-20T08:20:13;3.70;;;2.58;;
74674;SDS011;63200;48.810;12.352;2023-07-20T08:22:39;3.80;;;2.30;;
74674;SDS011;63200;48.810;12.352;2023-07-20T08:25:07;5.78;;;2.38;;
74674;SDS011;63200;48.810;12.352;2023-07-20T08:27:34;2.13;;;2.03;;
74674;SDS011;63200;48.810;12.352;2023-07-20T08:29:59;2.63;;;2.33;;
74674;SDS011;63200;48.810;12.352;2023-07-20T08:32:25;8.65;;;2.88;;
74674;SDS011;63200;48.810;12.352;2023-07-20T08:34:51;5.18;;;2.13;;
74674;SDS011;63200;48.810;12.352;2023-07-20T08:37:16;2.13;;;2.03;;
74674;SDS011;63200;48.810;12.352;2023-07-20T08:39:42;2.45;;;2.25;;
74674;SDS011;63200;48.810;12.352;2023-07-20T08:42:07;2.30;;;2.20;;
74674;SDS011;63200;48.810;12.352;2023-07-20T08:44:34;3.90;;;2.10;;
74674;SDS011;63200;48.810;12.352;2023-07-20T08:47:01;4.50;;;2.28;;
74674;SDS011;63200;48.810;12.352;2023-07-20T08:49:33;3.72;;;2.65;;
74674;SDS011;63200;48.810;12.352;2023-07-20T08:51:59;3.75;;;2.20;;
74674;SDS011;63200;48.810;12.352;2023-07-20T08:54:26;2.05;;;1.90;;
74674;SDS011;63200;48.810;12.352;2023-07-20T08:56:54;2.42;;;2.28;;
74674;SDS011;63200;48.810;12.352;2023-07-20T08:59:22;4.35;;;2.33;;
74674;SDS011;63200;48.810;12.352;2023-07-20T09:01:49;2.83;;;2.20;;
74674;SDS011;63200;48.810;12.352;2023-07-20T09:04:16;4.03;;;2.70;;
74674;SDS011;63200;48.810;12.352;2023-07-20T09:06:42;2.58;;;2.10;;
74674;SDS011;63200;48.810;12.352;2023-07-20T09:09:07;3.25;;;2.42;;
74674;SDS011;63200;48.810;12.352;2023-07-20T09:11:32;3.22;;;2.17;;
74674;SDS011;63200;48.810;12.352;2023-07-20T09:14:05;2.75;;;1.95;;
74674;SDS011;63200;48.810;12.352;2023-07-20T09:16:31;3.17;;;2.20;;
74674;SDS011;63200;48.810;12.352;2023-07-20T09:19:00;2.10;;;2.00;;
74674;SDS011;63200;48.810;12.352;2023-07-20T09:21:28;5.72;;;2.22;;
74674;SDS011;63200;48.810;12.352;2023-07-20T09:23:56;3.05;;;2.20;;
74674;SDS011;63200;48.810;12.352;2023-07-20T09:26:21;4.13;;;2.30;;
74674;SDS011;63200;48.810;12.352;2023-07-20T09:28:48;4.90;;;2.40;;
74674;SDS011;63200;48.810;12.352;2023-07-20T09:31:19;2.35;;;2.15;;
74674;SDS011;63200;48.810;12.352;2023-07-20T09:33:48;3.17;;;1.90;;
74674;SDS011;63200;48.810;12.352;2023-07-20T09:36:16;6.07;;;2.30;;
74674;SDS011;63200;48.810;12.352;2023-07-20T09:38:42;4.47;;;2.10;;
74674;SDS011;63200;48.810;12.352;2023-07-20T09:41:08;2.40;;;1.58;;
74674;SDS011;63200;48.810;12.352;2023-07-20T09:43:38;5.20;;;2.17;;
74674;SDS011;63200;48.810;12.352;2023-07-20T09:46:04;1.95;;;1.85;;
74674;SDS011;63200;48.810;12.352;2023-07-20T09:48:30;2.10;;;1.80;;
74674;SDS011;63200;48.810;12.352;2023-07-20T09:50:55;3.40;;;1.85;;
74674;SDS011;63200;48.810;12.352;2023-07-20T09:53:22;3.15;;;1.80;;
74674;SDS011;63200;48.810;12.352;2023-07-20T09:55:49;2.30;;;1.60;;
74674;SDS011;63200;48.810;12.352;2023-07-20T09:58:15;1.73;;;1.60;;
74674;SDS011;63200;48.810;12.352;2023-07-20T10:00:41;4.40;;;1.58;;
74674;SDS011;63200;48.810;12.352;2023-07-20T10:03:10;2.50;;;1.67;;
74674;SDS011;63200;48.810;12.352;2023-07-20T10:05:39;1.90;;;1.60;;
74674;SDS011;63200;48.810;12.352;2023-07-20T10:08:08;1.80;;;1.45;;
74674;SDS011;63200;48.810;12.352;2023-07-20T10:10:36;1.55;;;1.50;;
74674;SDS011;63200;48.810;12.352;2023-07-20T10:13:05;1.95;;;1.80;;
74674;SDS011;63200;48.810;12.352;2023-07-20T10:15:43;1.55;;;1.45;;
74674;SDS011;63200;48.810;12.352;2023-07-20T10:18:14;2.28;;;1.58;;
74674;SDS011;63200;48.810;12.352;2023-07-20T10:20:56;2.75;;;1.80;;
74674;SDS011;63200;48.810;12.352;2023-07-20T10:23:24;2.75;;;1.50;;
74674;SDS011;63200;48.810;12.352;2023-07-20T10:25:51;1.85;;;1.70;;
74674;SDS011;63200;48.810;12.352;2023-07-20T10:28:18;1.83;;;1.73;;
74674;SDS011;63200;48.810;12.352;2023-07-20T10:30:44;1.60;;;1.50;;
74674;SDS011;63200;48.810;12.352;2023-07-20T10:33:10;1.65;;;1.50;;
74674;SDS011;63200;48.810;12.352;2023-07-20T10:35:55;2.47;;;1.50;;
74674;SDS011;63200;48.810;12.352;2023-07-20T10:38:38;4.00;;;1.60;;
74674;SDS011;63200;48.810;12.352;2023-07-20T10:41:20;2.22;;;1.80;;
74674;SDS011;63200;48.810;12.352;2023-07-20T10:44:02;1.65;;;1.50;;
74674;SDS011;63200;48.810;12.352;2023-07-20T10:49:04;1.58;;;1.58;;
74674;SDS011;63200;48.810;12.352;2023-07-20T10:51:39;2.75;;;1.60;;
74674;SDS011;63200;48.810;12.352;2023-07-20T10:54:10;1.70;;;1.60;;
74674;SDS011;63200;48.810;12.352;2023-07-20T10:56:55;5.53;;;1.80;;
74674;SDS011;63200;48.810;12.352;2023-07-20T11:01:50;2.40;;;1.80;;
74674;SDS011;63200;48.810;12.352;2023-07-20T11:04:40;1.70;;;1.60;;
74674;SDS011;63200;48.810;12.352;2023-07-20T11:07:07;1.92;;;1.63;;
74674;SDS011;63200;48.810;12.352;2023-07-20T11:09:36;1.50;;;1.45;;
74674;SDS011;63200;48.810;12.352;2023-07-20T11:12:15;2.80;;;1.70;;
74674;SDS011;63200;48.810;12.352;2023-07-20T11:15:03;1.70;;;1.60;;
74674;SDS011;63200;48.810;12.352;2023-07-20T11:17:29;1.70;;;1.70;;
74674;SDS011;63200;48.810;12.352;2023-07-20T11:19:56;2.17;;;1.40;;
74674;SDS011;63200;48.810;12.352;2023-07-20T11:22:22;2.50;;;1.60;;
74674;SDS011;63200;48.810;12.352;2023-07-20T11:24:48;3.25;;;1.70;;
74674;SDS011;63200;48.810;12.352;2023-07-20T11:27:16;1.60;;;1.50;;
74674;SDS011;63200;48.810;12.352;2023-07-20T11:29:47;2.67;;;1.63;;
74674;SDS011;63200;48.810;12.352;2023-07-20T11:32:12;3.38;;;1.42;;
74674;SDS011;63200;48.810;12.352;2023-07-20T11:34:46;1.63;;;1.50;;
74674;SDS011;63200;48.810;12.352;2023-07-20T11:37:12;1.70;;;1.60;;
74674;SDS011;63200;48.810;12.352;2023-07-20T11:39:38;3.08;;;1.50;;
74674;SDS011;63200;48.810;12.352;2023-07-20T11:42:03;2.53;;;1.55;;
74674;SDS011;63200;48.810;12.352;2023-07-20T11:44:30;1.67;;;1.58;;
74674;SDS011;63200;48.810;12.352;2023-07-20T11:47:06;2.28;;;1.90;;
74674;SDS011;63200;48.810;12.352;2023-07-20T11:49:36;4.30;;;1.60;;
74674;SDS011;63200;48.810;12.352;2023-07-20T11:52:03;3.30;;;1.73;;
74674;SDS011;63200;48.810;12.352;2023-07-20T11:54:30;1.90;;;1.80;;
74674;SDS011;63200;48.810;12.352;2023-07-20T11:56:56;2.45;;;1.70;;
74674;SDS011;63200;48.810;12.352;2023-07-20T11:59:21;1.98;;;1.83;;
74674;SDS011;63200;48.810;12.352;2023-07-20T12:01:47;1.88;;;1.77;;
74674;SDS011;63200;48.810;12.352;2023-07-20T12:04:12;2.92;;;1.70;;
74674;SDS011;63200;48.810;12.352;2023-07-20T12:06:38;1.55;;;1.55;;
74674;SDS011;63200;48.810;12.352;2023-07-20T12:09:03;2.65;;;1.60;;
74674;SDS011;63200;48.810;12.352;2023-07-20T12:11:32;1.92;;;1.77;;
74674;SDS011;63200;48.810;12.352;2023-07-20T12:14:02;1.58;;;1.48;;
74674;SDS011;63200;48.810;12.352;2023-07-20T12:16:29;1.35;;;1.33;;
74674;SDS011;63200;48.810;12.352;2023-07-20T12:19:28;3.00;;;1.40;;
74674;SDS011;63200;48.810;12.352;2023-07-20T12:21:50;2.05;;;1.40;;
74674;SDS011;63200;48.810;12.352;2023-07-20T12:24:15;4.13;;;1.50;;
74674;SDS011;63200;48.810;12.352;2023-07-20T12:26:42;1.55;;;1.55;;
74674;SDS011;63200;48.810;12.352;2023-07-20T12:29:08;1.52;;;1.42;;
74674;SDS011;63200;48.810;12.352;2023-07-20T12:31:36;2.17;;;1.70;;
74674;SDS011;63200;48.810;12.352;2023-07-20T12:34:01;1.85;;;1.40;;
74674;SDS011;63200;48.810;12.352;2023-07-20T12:36:27;2.05;;;1.70;;
74674;SDS011;63200;48.810;12.352;2023-07-20T12:38:52;1.65;;;1.55;;
74674;SDS011;63200;48.810;12.352;2023-07-20T12:41:17;1.50;;;1.50;;
74674;SDS011;63200;48.810;12.352;2023-07-20T12:43:43;4.05;;;1.60;;
74674;SDS011;63200;48.810;12.352;2023-07-20T12:46:10;1.60;;;1.50;;
74674;SDS011;63200;48.810;12.352;2023-07-20T12:48:37;2.78;;;1.60;;
74674;SDS011;63200;48.810;12.352;2023-07-20T12:51:02;5.15;;;1.77;;
74674;SDS011;63200;48.810;12.352;2023-07-20T12:53:29;1.58;;;1.40;;
74674;SDS011;63200;48.810;12.352;2023-07-20T12:55:56;1.70;;;1.60;;
74674;SDS011;63200;48.810;12.352;2023-07-20T12:58:21;2.35;;;1.58;;
74674;SDS011;63200;48.810;12.352;2023-07-20T13:00:47;1.70;;;1.60;;
74674;SDS011;63200;48.810;12.352;2023-07-20T13:03:12;1.48;;;1.38;;
74674;SDS011;63200;48.810;12.352;2023-07-20T13:05:37;1.80;;;1.70;;
74674;SDS011;63200;48.810;12.352;2023-07-20T13:08:04;2.08;;;1.50;;
74674;SDS011;63200;48.810;12.352;2023-07-20T13:10:30;3.58;;;1.70;;
74674;SDS011;63200;48.810;12.352;2023-07-20T13:12:56;2.22;;;1.83;;
74674;SDS011;63200;48.810;12.352;2023-07-20T13:15:24;2.33;;;1.55;;
74674;SDS011;63200;48.810;12.352;2023-07-20T13:17:54;1.52;;;1.50;;
74674;SDS011;63200;48.810;12.352;2023-07-20T13:20:20;3.90;;;1.42;;
74674;SDS011;63200;48.810;12.352;2023-07-20T13:22:45;1.65;;;1.50;;
74674;SDS011;63200;48.810;12.352;2023-07-20T13:25:10;1.60;;;1.50;;
74674;SDS011;63200;48.810;12.352;2023-07-20T13:27:36;1.40;;;1.30;;
74674;SDS011;63200;48.810;12.352;2023-07-20T13:30:01;2.47;;;1.60;;
74674;SDS011;63200;48.810;12.352;2023-07-20T13:32:31;3.20;;;1.30;;
74674;SDS011;63200;48.810;12.352;2023-07-20T13:34:57;1.73;;;1.60;;
74674;SDS011;63200;48.810;12.352;2023-07-20T13:37:22;1.90;;;1.30;;
74674;SDS011;63200;48.810;12.352;2023-07-20T13:39:48;2.83;;;1.70;;
74674;SDS011;63200;48.810;12.352;2023-07-20T13:42:13;2.45;;;1.42;;
74674;SDS011;63200;48.810;12.352;2023-07-20T13:44:38;2.55;;;1.40;;
74674;SDS011;63200;48.810;12.352;2023-07-20T13:47:04;2.05;;;1.48;;
74674;SDS011;63200;48.810;12.352;2023-07-20T13:49:32;1.50;;;1.40;;
74674;SDS011;63200;48.810;12.352;2023-07-20T13:51:57;2.78;;;1.33;;
74674;SDS011;63200;48.810;12.352;2023-07-20T13:54:23;3.28;;;1.60;;
74674;SDS011;63200;48.810;12.352;2023-07-20T13:56:49;2.78;;;1.27;;
74674;SDS011;63200;48.810;12.352;2023-07-20T13:59:15;1.35;;;1.30;;
74674;SDS011;63200;48.810;12.352;2023-07-20T14:01:40;1.70;;;1.50;;
74674;SDS011;63200;48.810;12.352;2023-07-20T14:04:06;2.88;;;1.35;;
74674;SDS011;63200;48.810;12.352;2023-07-20T14:06:32;1.73;;;1.50;;
74674;SDS011;63200;48.810;12.352;2023-07-20T14:08:58;1.92;;;1.55;;
74674;SDS011;63200;48.810;12.352;2023-07-20T14:11:24;3.67;;;1.17;;
74674;SDS011;63200;48.810;12.352;2023-07-20T14:13:50;1.70;;;1.60;;
74674;SDS011;63200;48.810;12.352;2023-07-20T14:16:16;1.48;;;1.38;;
74674;SDS011;63200;48.810;12.352;2023-07-20T14:18:41;1.77;;;1.40;;
74674;SDS011;63200;48.810;12.352;2023-07-20T14:21:07;1.20;;;1.20;;
74674;SDS011;63200;48.810;12.352;2023-07-20T14:23:33;1.40;;;1.40;;
74674;SDS011;63200;48.810;12.352;2023-07-20T14:25:58;2.63;;;1.40;;
74674;SDS011;63200;48.810;12.352;2023-07-20T14:28:24;1.33;;;1.33;;
74674;SDS011;63200;48.810;12.352;2023-07-20T14:30:49;2.50;;;1.40;;
74674;SDS011;63200;48.810;12.352;2023-07-20T14:33:15;3.17;;;1.50;;
74674;SDS011;63200;48.810;12.352;2023-07-20T14:35:40;1.48;;;1.38;;
74674;SDS011;63200;48.810;12.352;2023-07-20T14:38:05;1.52;;;1.30;;
74674;SDS011;63200;48.810;12.352;2023-07-20T14:40:31;1.33;;;1.23;;
74674;SDS011;63200;48.810;12.352;2023-07-20T14:42:56;1.33;;;1.30;;
74674;SDS011;63200;48.810;12.352;2023-07-20T14:45:21;2.33;;;1.40;;
74674;SDS011;63200;48.810;12.352;2023-07-20T14:47:47;1.27;;;1.27;;
74674;SDS011;63200;48.810;12.352;2023-07-20T14:50:18;1.55;;;1.45;;